Los Posos, Valles Caldera, New Mexico Weather observations

Data are for 10 minute period ending at time listed.
 Day   Time   Solar   Ave.   Ave.  Ave.  Vector  Max.   Baro.   Total    
  of    of     Rad.   Air    Rel.  Wind   Wind   Wind  Press.  Precip.   
Year   Day            Temp.  Hum.  Speed  Dir.   Gust                    
2014   (MST)  Kw/m2    F      %     mph   deg.    mph    mb.     in.     
-------------------------------------------------------------------------
 240   18:30   0.01   57.5    49    3.0   330     5.4   99999.0    0.00 
 240   18:40   0.01   55.6    53    0.7   264     3.0   99999.0    0.00 
 240   18:50   0.00   53.3    59    1.2   101     3.6   99999.0    0.00 
 240   19:00   0.00   50.5    68    2.3   222     3.0   99999.0    0.00 
 240   19:10   0.00   49.1    71    2.7   226     3.6   99999.0    0.00 
 240   19:20   0.00   47.9    75    3.0   227     3.6   99999.0    0.00 
 240   19:30   0.00   47.5    76    1.9   219     3.0   99999.0    0.00 
 240   19:40   0.00   47.2    78    2.4   235     3.0   99999.0    0.00 
 240   19:50   0.00   46.1    78    0.5    46     3.0   99999.0    0.00 
 240   20:00   0.00   45.5    80    1.2   233     3.0   99999.0    0.00 
 240   20:10   0.00   45.4    80    2.7   235     3.6   99999.0    0.00 
 240   20:20   0.00   45.1    81    2.5   231     3.0   99999.0    0.00 
 240   20:30   0.00   45.1    81    0.8   214     1.8   99999.0    0.00 
 240   20:40   0.00   44.3    82    0.0   274     1.2   99999.0    0.00 
 240   20:50   0.00   43.5    84    0.9   258     2.4   99999.0    0.00 
 240   21:00   0.00   43.3    84    2.0   242     3.6   99999.0    0.00 
 240   21:10   0.00   43.1    84    2.0   243     3.0   99999.0    0.00 
 240   21:20   0.00   43.1    85    2.2   247     4.2   99999.0    0.00 
 240   21:30   0.00   43.1    86    2.6   245     4.2   99999.0    0.00 
 240   21:40   0.00   43.2    85    1.1    74     3.0   99999.0    0.00 
 240   21:50   0.00   42.9    85    1.2   240     2.4   99999.0    0.00 
 240   22:00   0.00   42.4    86    1.7   300     3.0   99999.0    0.00 
 240   22:10   0.00   42.4    88    0.7   253     2.4   99999.0    0.00 
 240   22:20   0.00   43.1    87    1.6   230     3.0   99999.0    0.00 
 240   22:30   0.00   42.8    86    1.3   297     3.6   99999.0    0.00 
 240   22:40   0.00   42.5    88    2.1   156     3.6   99999.0    0.00 
 240   22:50   0.00   42.5    88    1.4   251     3.0   99999.0    0.00 
 240   23:00   0.00   43.6    87    1.5   254     2.4   99999.0    0.00 
 240   23:10   0.00   44.1    85    1.2   276     3.0   99999.0    0.00 
 240   23:20   0.00   43.7    86    0.2   234     2.4   99999.0    0.00 
 240   23:30   0.00   43.7    87    1.3   326     2.4   99999.0    0.00 
 240   23:40   0.00   43.5    89    0.2   272     1.8   99999.0    0.00 
 240   23:50   0.00   44.2    89    1.2   260     2.4   99999.0    0.00 
 241    0:00   0.00   44.9    86    0.5   269     2.4   99999.0    0.00 
 241    0:10   0.00   45.6    84    1.6   239     3.0   99999.0    0.00 
 241    0:20   0.00   46.1    82    1.1   188     3.0   99999.0    0.00 
 241    0:30   0.00   46.5    82    0.8   240     1.8   99999.0    0.00 
 241    0:40   0.00   46.5    81    0.6    58     3.0   99999.0    0.00 
 241    0:50   0.00   46.1    83    0.1   269     1.2   99999.0    0.00 
 241    1:00   0.00   46.2    83    0.0     0     0.0   99999.0    0.00 
 241    1:10   0.00   46.1    83    0.8   343     2.4   99999.0    0.00 
 241    1:20   0.00   46.3    84    0.9   348     2.4   99999.0    0.00 
 241    1:30   0.00   46.5    84    0.8   302     1.8   99999.0    0.00 
 241    1:40   0.00   46.3    84    0.7   278     2.4   99999.0    0.00 
 241    1:50   0.00   46.0    81    2.7   235     4.2   99999.0    0.00 
 241    2:00   0.00   46.0    79    3.0   165     4.8   99999.0    0.00 
 241    2:10   0.00   45.8    79    1.5   230     3.0   99999.0    0.00 
 241    2:20   0.00   44.6    80    2.1   235     3.6   99999.0    0.00 
 241    2:30   0.00   42.8    82    1.1   255     2.4   99999.0    0.00 
 241    2:40   0.00   41.7    84    2.0   236     3.6   99999.0    0.00 
 241    2:50   0.00   41.6    84    2.1   257     3.6   99999.0    0.00 
 241    3:00   0.00   41.2    84    0.8   296     1.8   99999.0    0.00 
 241    3:10   0.00   40.9    85    0.8   239     2.4   99999.0    0.00 
 241    3:20   0.00   40.3    87    0.6   277     1.8   99999.0    0.00 
 241    3:30   0.00   39.7    88    0.4   286     3.0   99999.0    0.00 
 241    3:40   0.00   39.0    88    2.1   314     3.0   99999.0    0.00 
 241    3:50   0.00   39.2    89    1.6   301     3.0   99999.0    0.00 
 241    4:00   0.00   39.1    88    0.7   296     2.4   99999.0    0.00 
 241    4:10   0.00   38.8    89    1.1   267     2.4   99999.0    0.00 
 241    4:20   0.00   39.2    89    1.8   190     4.2   99999.0    0.00 
 241    4:30   0.00   40.7    86    4.4   170     6.0   99999.0    0.00 
 241    4:40   0.00   40.9    84    2.8   215     4.2   99999.0    0.00 
 241    4:50   0.00   38.8    85    1.7     2     4.2   99999.0    0.00 
 241    5:00   0.00   37.1    89    2.3   296     3.0   99999.0    0.00 
 241    5:10   0.00   36.4    91    2.5   250     4.2   99999.0    0.00 
 241    5:20   0.00   36.7    92    0.3   277     1.8   99999.0    0.00 
 241    5:30   0.00   36.7    92    0.4    35     1.8   99999.0    0.00 
 241    5:40   0.00   36.4    92    0.3   351     1.8   99999.0    0.00 
 241    5:50   0.01   36.5    93    0.2   288     1.2   99999.0    0.00 
 241    6:00   0.01   36.5    93    1.8   252     3.0   99999.0    0.00 
 241    6:10   0.02   36.8    93    1.4   269     3.0   99999.0    0.00 
 241    6:20   0.12   37.7    93    1.8     3     3.0   99999.0    0.00 
 241    6:30   0.15   40.0    90    2.1    69     3.0   99999.0    0.00 
 241    6:40   0.18   43.6    81    0.8    70     3.0   99999.0    0.00 
 241    6:50   0.21   47.4    72    0.6    94     2.4   99999.0    0.00 
 241    7:00   0.24   48.5    70    0.0     0     0.0   99999.0    0.00 
 241    7:10   0.27   49.7    70    0.0     0     0.0   99999.0    0.00 
 241    7:20   0.31   54.3    63    1.2   359     2.4   99999.0    0.00 
 241    7:30   0.34   58.3    59    2.0    41     3.0   99999.0    0.00 
 241    7:40   0.38   60.4    55    2.6    65     3.6   99999.0    0.00 
 241    7:50   0.41   62.0    50    2.8    58     3.6   99999.0    0.00 
 241    8:00   0.45   63.0    48    2.0    49     4.2   99999.0    0.00 
 241    8:10   0.48   62.6    48    2.9    54     4.8   99999.0    0.00 
 241    8:20   0.51   63.9    44    3.6    22     6.0   99999.0    0.00 
 241    8:30   0.54   64.8    40    3.9    32     6.0   99999.0    0.00 
 241    8:40   0.58   64.1    40    5.3   348     8.4   99999.0    0.00 
 241    8:50   0.61   63.6    41    4.7   339     8.4   99999.0    0.00 
 241    9:00   0.53   61.2    42    4.6   261    11.3   99999.0    0.00 
 241    9:10   0.59   60.9    46    6.6   112    12.5   99999.0    0.00 
 241    9:20   0.49   59.7    47    3.8   166     6.6   99999.0    0.00 
 241    9:30   0.77   61.1    46    4.5   127     7.8   99999.0    0.00 
 241    9:40   0.71   62.9    42    3.2   144     7.2   99999.0    0.00 
 241    9:50   0.72   62.6    44    3.5   104     7.8   99999.0    0.00 
 241   10:00   0.82   63.1    44    3.6   135     7.2   99999.0    0.00 
 241   10:10   0.68   64.1    43    6.6    44    11.3   99999.0    0.00 
 241   10:20   0.89   63.8    45    5.5   107    10.8   99999.0    0.00 
 241   10:30   0.86   64.4    44    5.6    90     9.6   99999.0    0.00 
 241   10:40   0.53   62.9    45    3.7   131     7.8   99999.0    0.00 
 241   10:50   0.78   61.2    48    5.4   147     9.6   99999.0    0.00 
 241   11:00   0.73   63.1    45    3.8   161     9.6   99999.0    0.00 
 241   11:10   0.55   62.6    45    4.1   168     8.4   99999.0    0.00 
 241   11:20   0.30   61.7    47    4.9    88     9.6   99999.0    0.00 
 241   11:30   0.64   62.5    48    4.6   110     8.4   99999.0    0.00 
 241   11:40   0.49   63.0    47    4.6   118     8.4   99999.0    0.00 
 241   11:50   0.51   62.9    47    5.2   103     8.4   99999.0    0.00 
 241   12:00   0.40   61.6    48    6.0   117     9.6   99999.0    0.00 
 241   12:10   0.76   63.1    45    3.9   102     8.4   99999.0    0.00 
 241   12:20   0.47   64.1    43    3.0    96     6.0   99999.0    0.00 
 241   12:30   0.57   63.5    43    3.5   135     6.6   99999.0    0.00 
 241   12:40   0.63   64.5    43    4.6   149    11.9   99999.0    0.00 
 241   12:50   0.51   63.0    45    5.2   116    11.3   99999.0    0.00 
 241   13:00   0.76   64.7    45    4.4   130     9.0   99999.0    0.00 
 241   13:10   0.72   65.1    44    4.8   145    10.2   99999.0    0.00 
 241   13:20   0.53   63.6    43    3.5   129     7.2   99999.0    0.00 
 241   13:30   0.42   65.3    42    2.9    95     6.6   99999.0    0.00 
 241   13:40   0.87   65.0    45    3.5   176     9.0   99999.0    0.00 
 241   13:50   0.63   65.1    42    5.6   205    10.2   99999.0    0.00 
 241   14:00   0.79   66.7    43    4.8   142    10.8   99999.0    0.00 
 241   14:10   0.69   65.6    43    5.3   145     9.6   99999.0    0.00 
 241   14:20   0.86   66.6    40    4.9   164     9.6   99999.0    0.00 
 241   14:30   0.88   67.7    38    4.9   176     9.6   99999.0    0.00 
 241   14:40   0.83   68.2    39    5.1   127    10.2   99999.0    0.00 
 241   14:50   0.84   67.9    39    6.4   151    10.8   99999.0    0.00 
 241   15:00   0.77   68.2    37    6.7   183    14.9   99999.0    0.00 
 241   15:10   0.76   68.1    36    6.8   175    11.9   99999.0    0.00 
 241   15:20   0.71   68.0    37    6.3   178    10.2   99999.0    0.00 
 241   15:30   0.34   66.3    38    5.6   182     9.6   99999.0    0.00 
 241   15:40   0.24   64.9    40    4.7   178     9.6   99999.0    0.00 
 241   15:50   0.17   64.7    40    3.9   172     8.4   99999.0    0.00 
 241   16:00   0.13   63.5    41    3.9   159     7.8   99999.0    0.00 
 241   16:10   0.32   64.7    39    3.7   172     6.6   99999.0    0.00 
 241   16:20   0.54   67.9    34    4.9   170     8.4   99999.0    0.00 
 241   16:30   0.29   67.4    34    5.0   170     9.0   99999.0    0.00 
 241   16:40   0.11   64.6    37    3.7   177     6.0   99999.0    0.00 
 241   16:50   0.40   66.1    36    4.7   163     9.0   99999.0    0.00 
 241   17:00   0.39   67.6    32    5.2   182    10.2   99999.0    0.00 
 241   17:10   0.34   67.4    32    5.1   159    10.2   99999.0    0.00 
 241   17:20   0.29   67.3    31    4.7   189     8.4   99999.0    0.00 
 241   17:30   0.24   67.6    30    4.8   226     9.0   99999.0    0.00 
 241   17:40   0.20   67.0    29    4.5   217     8.4   99999.0    0.00 
 241   17:50   0.15   66.4    28    3.8   233     6.6   99999.0    0.00 
 241   18:00   0.12   65.4    30    3.5   204     6.6   99999.0    0.00 
 241   18:10   0.05   63.0    32    3.4   207     6.0   99999.0    0.00 
 241   18:20   0.01   59.7    38    2.2   203     3.6   99999.0    0.00 

Return to Los Posos, Valles Caldera graphs page.


Western Regional Climate Center,wrcc@dri.edu